AEA9018 GCLP-LEMD
Flight info
| Callsign | AEA9018 |
|---|---|
| Flight time | N/A |
| Altitude | 38000 |
| Route | VASTO UN858 PESAS N858 PARKA Z165 SOTUK |
| Aircraft | B738/M-SDE2E3FGHIRWXY/LB1 |
Departure
| Time | 2026-05-08 07:42 |
|---|---|
| Airport | Gran Canaria Airport (GCLP) |
Arrival
| Time | N/A |
|---|---|
| Airport | Adolfo Suárez Madrid–Barajas Airport (LEMD) |
| Time | Latitude | Longitude | Altitude | Speed | Heading |
|---|---|---|---|---|---|
| 2026-05-08 07:19 | 27.93981 | -15.38765 | 84 ft | 0 kts | 291° |
| 2026-05-08 07:30 | 27.93979 | -15.38757 | 84 ft | 4 kts | 290° |
| 2026-05-08 07:30 | 27.93969 | -15.38729 | 83 ft | 4 kts | 290° |
| 2026-05-08 07:30 | 27.93961 | -15.38701 | 86 ft | 4 kts | 284° |
| 2026-05-08 07:31 | 27.93958 | -15.38682 | 84 ft | 2 kts | 249° |
| 2026-05-08 07:31 | 27.93965 | -15.38673 | 83 ft | 2 kts | 204° |
| 2026-05-08 07:31 | 27.93971 | -15.38670 | 85 ft | 0 kts | 202° |
| 2026-05-08 07:34 | 27.93966 | -15.38672 | 83 ft | 2 kts | 202° |
| 2026-05-08 07:35 | 27.93933 | -15.38687 | 84 ft | 8 kts | 201° |
| 2026-05-08 07:35 | 27.93864 | -15.38718 | 85 ft | 12 kts | 201° |
| 2026-05-08 07:35 | 27.93786 | -15.38752 | 85 ft | 12 kts | 201° |
| 2026-05-08 07:35 | 27.93710 | -15.38785 | 86 ft | 12 kts | 201° |
| 2026-05-08 07:36 | 27.93636 | -15.38818 | 86 ft | 11 kts | 201° |
| 2026-05-08 07:36 | 27.93565 | -15.38849 | 85 ft | 11 kts | 201° |
| 2026-05-08 07:36 | 27.93495 | -15.38874 | 85 ft | 9 kts | 193° |
| 2026-05-08 07:36 | 27.93441 | -15.38844 | 81 ft | 10 kts | 116° |
| 2026-05-08 07:37 | 27.93409 | -15.38770 | 73 ft | 11 kts | 141° |
| 2026-05-08 07:37 | 27.93332 | -15.38787 | 71 ft | 12 kts | 201° |
| 2026-05-08 07:37 | 27.93253 | -15.38821 | 71 ft | 12 kts | 201° |
| 2026-05-08 07:37 | 27.93177 | -15.38855 | 70 ft | 12 kts | 204° |
| 2026-05-08 07:38 | 27.93103 | -15.38896 | 68 ft | 12 kts | 201° |
| 2026-05-08 07:38 | 27.93025 | -15.38930 | 69 ft | 14 kts | 201° |
| 2026-05-08 07:38 | 27.92915 | -15.38979 | 83 ft | 18 kts | 201° |
| 2026-05-08 07:38 | 27.92802 | -15.39029 | 87 ft | 17 kts | 201° |
| 2026-05-08 07:39 | 27.92692 | -15.39077 | 88 ft | 17 kts | 201° |
| 2026-05-08 07:39 | 27.92586 | -15.39124 | 90 ft | 16 kts | 201° |
| 2026-05-08 07:39 | 27.92484 | -15.39169 | 94 ft | 15 kts | 201° |
| 2026-05-08 07:39 | 27.92386 | -15.39212 | 97 ft | 15 kts | 201° |
| 2026-05-08 07:40 | 27.92292 | -15.39254 | 98 ft | 14 kts | 201° |
| 2026-05-08 07:40 | 27.92202 | -15.39294 | 101 ft | 14 kts | 201° |
| 2026-05-08 07:40 | 27.92107 | -15.39305 | 93 ft | 12 kts | 176° |
| 2026-05-08 07:40 | 27.92025 | -15.39299 | 90 ft | 11 kts | 176° |
| 2026-05-08 07:41 | 27.91955 | -15.39292 | 88 ft | 8 kts | 166° |
| 2026-05-08 07:41 | 27.91921 | -15.39238 | 89 ft | 10 kts | 88° |
| 2026-05-08 07:41 | 27.91976 | -15.39195 | 85 ft | 12 kts | 21° |
| 2026-05-08 07:41 | 27.92250 | -15.39074 | 70 ft | 78 kts | 21° |
| 2026-05-08 07:42 | 27.92970 | -15.38756 | 59 ft | 142 kts | 21° |
| 2026-05-08 07:42 | 27.94008 | -15.38303 | 362 ft | 165 kts | 21° |
| 2026-05-08 07:42 | 27.95093 | -15.37787 | 998 ft | 173 kts | 20° |
| 2026-05-08 07:42 | 27.96239 | -15.37305 | 1566 ft | 184 kts | 20° |
| 2026-05-08 07:43 | 27.97519 | -15.36748 | 1804 ft | 209 kts | 20° |
| 2026-05-08 07:43 | 27.98949 | -15.36129 | 1982 ft | 230 kts | 20° |
| 2026-05-08 07:43 | 28.00497 | -15.35465 | 2213 ft | 248 kts | 20° |
| 2026-05-08 07:43 | 28.02167 | -15.34752 | 2650 ft | 261 kts | 20° |
| 2026-05-08 07:44 | 28.03852 | -15.34035 | 2995 ft | 264 kts | 20° |
| 2026-05-08 07:44 | 28.05613 | -15.33274 | 3295 ft | 270 kts | 20° |
| 2026-05-08 07:44 | 28.07360 | -15.32512 | 4102 ft | 268 kts | 19° |
| 2026-05-08 07:44 | 28.09106 | -15.31752 | 4846 ft | 271 kts | 18° |
| 2026-05-08 07:45 | 28.10881 | -15.30980 | 5499 ft | 275 kts | 18° |
| 2026-05-08 07:45 | 28.12660 | -15.30207 | 6174 ft | 280 kts | 18° |
| 2026-05-08 07:45 | 28.14519 | -15.29412 | 6834 ft | 284 kts | 16° |
| 2026-05-08 07:45 | 28.16403 | -15.28805 | 7472 ft | 287 kts | 12° |
| 2026-05-08 07:46 | 28.18362 | -15.28267 | 8141 ft | 292 kts | 11° |
| 2026-05-08 07:46 | 28.20353 | -15.27729 | 8836 ft | 296 kts | 11° |
| 2026-05-08 07:46 | 28.22376 | -15.27175 | 9540 ft | 301 kts | 12° |
| 2026-05-08 07:46 | 28.24425 | -15.26604 | 10210 ft | 307 kts | 12° |
| 2026-05-08 07:47 | 28.26564 | -15.26000 | 10470 ft | 328 kts | 12° |
| 2026-05-08 07:47 | 28.28854 | -15.25350 | 10689 ft | 348 kts | 12° |
| 2026-05-08 07:47 | 28.31237 | -15.24669 | 11206 ft | 356 kts | 12° |
| 2026-05-08 07:47 | 28.33591 | -15.23770 | 11866 ft | 362 kts | 27° |
| 2026-05-08 07:48 | 28.35713 | -15.22215 | 12624 ft | 364 kts | 32° |